createdAt,value
2024-01-26T00:00:34.857Z,6.68
2024-01-26T00:03:01.405Z,6.61
2024-01-26T00:05:27.968Z,6.59
2024-01-26T00:07:54.575Z,6.46
2024-01-26T00:10:21.409Z,6.45
2024-01-26T00:12:48.089Z,6.35
2024-01-26T00:15:15.628Z,6.17
2024-01-26T00:17:42.133Z,6.18
2024-01-26T00:20:10.634Z,6.08
2024-01-26T00:22:37.186Z,6.11
2024-01-26T00:25:04.004Z,6.16
2024-01-26T00:27:30.864Z,6.09
2024-01-26T00:29:57.375Z,6.03
2024-01-26T00:32:23.863Z,5.97
2024-01-26T00:34:50.595Z,6.01
2024-01-26T00:37:17.165Z,5.91
2024-01-26T00:39:43.823Z,6.02
2024-01-26T00:42:10.407Z,6.02
2024-01-26T00:44:38.317Z,5.94
2024-01-26T00:47:05.172Z,5.92
2024-01-26T00:49:38.838Z,6.01
2024-01-26T00:52:12.659Z,5.98
2024-01-26T00:54:39.414Z,6.06
2024-01-26T00:57:06.243Z,6.12
2024-01-26T00:59:32.983Z,6.29
2024-01-26T01:01:59.805Z,6.32
2024-01-26T01:04:27.079Z,6.38
2024-01-26T01:06:53.903Z,6.35
2024-01-26T01:09:20.783Z,6.28
2024-01-26T01:11:47.343Z,6.31
2024-01-26T01:14:13.941Z,6.36
2024-01-26T01:16:41.046Z,6.30
2024-01-26T01:19:08.694Z,6.11
2024-01-26T01:21:35.759Z,6.20
2024-01-26T01:24:02.424Z,6.17
2024-01-26T01:26:29.097Z,6.11
2024-01-26T01:28:55.704Z,6.10
2024-01-26T01:31:22.229Z,5.98
2024-01-26T01:33:49.102Z,5.98
2024-01-26T01:36:15.716Z,5.99
2024-01-26T01:38:43.893Z,6.09
2024-01-26T01:41:10.409Z,6.12
2024-01-26T01:43:36.921Z,6.09
2024-01-26T01:46:03.838Z,6.15
2024-01-26T01:48:30.695Z,6.25
2024-01-26T01:50:57.690Z,6.14
2024-01-26T01:53:25.731Z,6.13
2024-01-26T01:55:52.716Z,6.04
2024-01-26T01:58:21.215Z,6.11
2024-01-26T02:00:47.841Z,6.06
2024-01-26T02:03:14.686Z,6.08
2024-01-26T02:05:41.256Z,6.05
2024-01-26T02:08:07.811Z,6.06
2024-01-26T02:10:34.334Z,6.10
2024-01-26T02:13:02.486Z,6.06
2024-01-26T02:15:28.969Z,6.11
2024-01-26T02:17:55.493Z,6.17
2024-01-26T02:20:30.564Z,6.12
2024-01-26T02:23:04.763Z,6.10
2024-01-26T02:25:31.287Z,6.06
2024-01-26T02:27:57.812Z,6.10
2024-01-26T02:30:24.324Z,6.15
2024-01-26T02:32:50.930Z,6.09
2024-01-26T02:35:17.650Z,6.18
2024-01-26T02:37:44.165Z,6.24
2024-01-26T02:40:11.777Z,6.23
2024-01-26T02:42:38.380Z,6.33
2024-01-26T02:45:05.315Z,6.33
2024-01-26T02:47:31.970Z,6.28
2024-01-26T02:49:58.554Z,6.19
2024-01-26T02:52:25.054Z,6.24
2024-01-26T02:54:53.027Z,6.21
2024-01-26T02:57:19.586Z,6.08
2024-01-26T02:59:46.260Z,5.94
2024-01-26T03:02:12.919Z,5.88
2024-01-26T03:04:39.365Z,5.90
2024-01-26T03:07:05.984Z,5.97
2024-01-26T03:09:32.933Z,6.05
2024-01-26T03:11:59.500Z,6.10
2024-01-26T03:14:25.962Z,6.24
2024-01-26T03:16:52.505Z,6.22
2024-01-26T03:19:19.228Z,6.36
2024-01-26T03:21:46.442Z,6.29
2024-01-26T03:24:14.072Z,6.31
2024-01-26T03:26:40.899Z,6.22
2024-01-26T03:29:08.138Z,6.07
2024-01-26T03:31:35.121Z,5.99
2024-01-26T03:34:02.206Z,5.86
2024-01-26T03:36:29.116Z,5.85
2024-01-26T03:38:55.710Z,5.75
2024-01-26T03:41:22.253Z,5.70
2024-01-26T03:43:52.849Z,5.67
2024-01-26T03:46:20.575Z,5.52
2024-01-26T03:48:47.417Z,5.64
2024-01-26T03:51:14.711Z,5.71
2024-01-26T03:53:41.235Z,5.74
2024-01-26T03:56:07.888Z,5.74
2024-01-26T03:58:34.517Z,5.76
2024-01-26T04:01:01.534Z,5.87
2024-01-26T04:03:28.258Z,5.92
2024-01-26T04:05:54.820Z,5.86
2024-01-26T04:08:21.382Z,5.83
2024-01-26T04:10:47.954Z,5.87
2024-01-26T04:13:14.441Z,5.91
2024-01-26T04:15:41.032Z,5.86
2024-01-26T04:18:07.705Z,5.65
2024-01-26T04:20:34.600Z,5.67
2024-01-26T04:23:01.132Z,5.61
2024-01-26T04:25:27.930Z,5.54
2024-01-26T04:27:54.492Z,5.48
2024-01-26T04:30:21.639Z,5.42
2024-01-26T04:32:48.376Z,5.45
2024-01-26T04:35:15.504Z,5.42
2024-01-26T04:37:42.136Z,5.55
2024-01-26T04:40:08.940Z,5.61
2024-01-26T04:42:35.941Z,5.69
2024-01-26T04:45:02.586Z,5.72
2024-01-26T04:47:29.674Z,5.72
2024-01-26T04:49:56.242Z,5.76
2024-01-26T04:52:22.775Z,5.69
2024-01-26T04:54:49.594Z,5.57
2024-01-26T04:57:16.301Z,5.57
2024-01-26T04:59:43.222Z,5.40
2024-01-26T05:02:09.908Z,5.31
2024-01-26T05:04:36.524Z,5.20
2024-01-26T05:07:03.356Z,5.17
2024-01-26T05:09:30.017Z,5.05
2024-01-26T05:11:56.996Z,4.98
2024-01-26T05:14:23.750Z,4.84
2024-01-26T05:16:50.245Z,4.86
2024-01-26T05:19:16.893Z,4.84
2024-01-26T05:21:43.471Z,4.73
2024-01-26T05:24:10.157Z,4.65
2024-01-26T05:26:39.418Z,4.79
2024-01-26T05:29:08.172Z,4.79
2024-01-26T05:31:36.426Z,4.84
2024-01-26T05:34:03.370Z,4.85
2024-01-26T05:36:30.000Z,4.96
2024-01-26T05:38:56.516Z,5.03
2024-01-26T05:41:23.101Z,5.02
2024-01-26T05:43:50.221Z,5.17
2024-01-26T05:46:16.785Z,5.16
2024-01-26T05:48:47.252Z,5.11
2024-01-26T05:51:14.717Z,5.15
2024-01-26T05:53:41.384Z,5.09
2024-01-26T05:56:07.982Z,5.03
2024-01-26T05:58:34.573Z,4.94
2024-01-26T06:01:01.334Z,4.96
2024-01-26T06:03:28.914Z,4.96
2024-01-26T06:05:55.937Z,4.80
2024-01-26T06:08:22.647Z,4.67
2024-01-26T06:10:49.606Z,4.54
2024-01-26T06:13:16.441Z,4.53
2024-01-26T06:15:42.957Z,4.51
2024-01-26T06:18:09.685Z,4.45
2024-01-26T06:20:36.523Z,4.49
2024-01-26T06:23:03.265Z,4.47
2024-01-26T06:25:29.798Z,4.52
2024-01-26T06:27:56.399Z,4.58
2024-01-26T06:30:22.950Z,4.50
2024-01-26T06:32:49.670Z,4.54
2024-01-26T06:35:16.332Z,4.68
2024-01-26T06:37:42.835Z,4.54
2024-01-26T06:40:13.396Z,4.70
2024-01-26T06:42:43.253Z,4.71
2024-01-26T06:45:14.089Z,4.75
2024-01-26T06:47:40.926Z,4.75
2024-01-26T06:50:10.753Z,4.73
2024-01-26T06:52:39.088Z,4.74
2024-01-26T06:55:05.819Z,4.59
2024-01-26T06:57:32.981Z,4.71
2024-01-26T06:59:59.504Z,4.66
2024-01-26T07:02:26.041Z,4.73
2024-01-26T07:04:52.541Z,4.86
2024-01-26T07:07:19.078Z,4.75
2024-01-26T07:09:45.619Z,4.80
2024-01-26T07:12:12.322Z,4.79
2024-01-26T07:14:39.015Z,4.70
2024-01-26T07:17:05.604Z,4.77
2024-01-26T07:19:32.166Z,4.77
2024-01-26T07:21:58.902Z,4.71
2024-01-26T07:24:25.498Z,4.72
2024-01-26T07:26:52.205Z,4.79
2024-01-26T07:29:18.805Z,4.80
2024-01-26T07:31:47.318Z,4.79
2024-01-26T07:34:14.591Z,4.91
2024-01-26T07:36:41.355Z,4.89
2024-01-26T07:39:08.571Z,4.83
2024-01-26T07:41:35.384Z,4.82
2024-01-26T07:44:01.848Z,4.86
2024-01-26T07:46:28.366Z,4.91
2024-01-26T07:48:55.398Z,4.97
2024-01-26T07:51:22.106Z,5.01
2024-01-26T07:53:48.667Z,5.14
2024-01-26T07:56:15.316Z,5.10
2024-01-26T07:58:42.058Z,5.12
2024-01-26T08:01:10.799Z,5.06
2024-01-26T08:03:37.655Z,5.17
2024-01-26T08:06:04.736Z,5.02
2024-01-26T08:08:31.584Z,5.09
2024-01-26T08:10:58.999Z,5.14
2024-01-26T08:13:25.977Z,5.08
2024-01-26T08:15:53.042Z,4.81
2024-01-26T08:18:19.970Z,4.84
2024-01-26T08:20:46.582Z,4.81
2024-01-26T08:23:13.355Z,4.88
2024-01-26T08:25:41.694Z,5.03
2024-01-26T08:28:08.234Z,5.07
2024-01-26T08:30:35.579Z,5.11
2024-01-26T08:33:02.209Z,5.36
2024-01-26T08:35:28.959Z,5.39
2024-01-26T08:37:55.574Z,5.51
2024-01-26T08:40:22.138Z,5.50
2024-01-26T08:42:48.718Z,5.57
2024-01-26T08:45:15.336Z,5.59
2024-01-26T08:47:41.929Z,5.70
2024-01-26T08:50:08.982Z,5.76
2024-01-26T08:52:35.871Z,5.83
2024-01-26T08:55:02.397Z,5.82
2024-01-26T08:57:28.910Z,5.77
2024-01-26T08:59:55.664Z,5.78
2024-01-26T09:02:22.204Z,5.87
2024-01-26T09:04:48.730Z,5.97
2024-01-26T09:07:18.863Z,6.00
2024-01-26T09:09:45.493Z,5.98
2024-01-26T09:12:12.076Z,6.16
2024-01-26T09:14:38.637Z,6.17
2024-01-26T09:17:05.159Z,6.31
2024-01-26T09:19:31.827Z,6.35
2024-01-26T09:21:58.419Z,6.41
2024-01-26T09:24:25.057Z,6.44
2024-01-26T09:26:54.033Z,6.49
2024-01-26T09:29:20.681Z,6.69
2024-01-26T09:31:47.200Z,6.50
2024-01-26T09:34:15.055Z,6.53
2024-01-26T09:36:41.722Z,6.52
2024-01-26T09:39:08.516Z,6.61
2024-01-26T09:41:35.749Z,6.73
2024-01-26T09:44:04.199Z,6.78
2024-01-26T09:46:32.278Z,6.89
2024-01-26T09:48:59.635Z,6.90
2024-01-26T09:51:30.299Z,7.00
2024-01-26T09:54:01.114Z,7.10
2024-01-26T09:56:28.482Z,7.10
2024-01-26T09:58:55.001Z,7.24
2024-01-26T10:01:22.971Z,7.31
2024-01-26T10:03:53.602Z,7.24
2024-01-26T10:06:21.735Z,7.28
2024-01-26T10:08:48.618Z,7.37
2024-01-26T10:11:15.246Z,7.43
2024-01-26T10:13:42.024Z,7.52
2024-01-26T10:16:10.541Z,7.47
2024-01-26T10:18:48.222Z,7.61
2024-01-26T10:21:17.641Z,7.72
2024-01-26T10:23:44.941Z,7.77
2024-01-26T10:26:11.989Z,7.91
2024-01-26T10:28:39.355Z,7.82
2024-01-26T10:31:06.585Z,7.87
2024-01-26T10:33:33.464Z,7.87
2024-01-26T10:36:02.234Z,7.97
2024-01-26T10:38:32.609Z,8.01
2024-01-26T10:41:06.617Z,8.07
2024-01-26T10:43:33.930Z,7.99
2024-01-26T10:46:03.162Z,7.85
2024-01-26T10:48:30.955Z,7.90
2024-01-26T10:50:58.907Z,7.94
2024-01-26T10:53:27.478Z,8.00
2024-01-26T10:55:54.197Z,8.04
2024-01-26T10:58:20.934Z,8.02
2024-01-26T11:00:48.333Z,7.88
2024-01-26T11:03:16.083Z,7.87
2024-01-26T11:05:49.270Z,7.83
2024-01-26T11:08:23.002Z,7.92
2024-01-26T11:10:51.687Z,8.03
2024-01-26T11:13:18.326Z,8.05
2024-01-26T11:15:48.060Z,8.12
2024-01-26T11:18:28.384Z,8.03
2024-01-26T11:20:55.345Z,8.05
2024-01-26T11:23:22.874Z,8.13
2024-01-26T11:25:55.336Z,8.22
2024-01-26T11:28:26.641Z,8.27
2024-01-26T11:30:54.962Z,8.30
2024-01-26T11:33:25.485Z,8.35
2024-01-26T11:36:05.313Z,8.45
2024-01-26T11:38:33.481Z,8.47
2024-01-26T11:41:00.180Z,8.44
2024-01-26T11:43:27.566Z,8.53
2024-01-26T11:45:57.106Z,8.59
2024-01-26T11:48:24.087Z,8.65
2024-01-26T11:50:50.946Z,8.58
2024-01-26T11:53:19.186Z,8.56
2024-01-26T11:55:46.570Z,8.53
2024-01-26T11:58:16.455Z,8.54
2024-01-26T12:00:45.182Z,8.56
2024-01-26T12:03:15.569Z,8.56
2024-01-26T12:05:42.373Z,8.58
2024-01-26T12:08:10.520Z,8.63
2024-01-26T12:10:38.315Z,8.51
2024-01-26T12:13:06.805Z,8.58
2024-01-26T12:15:40.247Z,8.58
2024-01-26T12:18:12.544Z,8.48
2024-01-26T12:20:40.665Z,8.57
2024-01-26T12:23:16.361Z,8.51
2024-01-26T12:25:43.027Z,8.48
2024-01-26T12:28:09.643Z,8.39
2024-01-26T12:30:36.288Z,8.37
2024-01-26T12:33:09.239Z,8.35
2024-01-26T12:35:36.782Z,8.40
2024-01-26T12:38:03.627Z,8.41
2024-01-26T12:40:30.163Z,8.46
2024-01-26T12:42:56.682Z,8.56
2024-01-26T12:45:23.387Z,8.55
2024-01-26T12:47:50.191Z,8.58
2024-01-26T12:50:17.194Z,8.55
2024-01-26T12:52:44.056Z,8.55
2024-01-26T12:55:10.742Z,8.54
2024-01-26T12:57:37.277Z,8.42
2024-01-26T13:00:04.382Z,8.50
2024-01-26T13:02:31.058Z,8.60
2024-01-26T13:04:58.922Z,8.72
2024-01-26T13:07:25.611Z,8.64
2024-01-26T13:09:52.173Z,8.77
2024-01-26T13:12:19.954Z,8.71
2024-01-26T13:14:48.093Z,8.63
2024-01-26T13:17:14.854Z,8.57
2024-01-26T13:19:41.559Z,8.63
2024-01-26T13:22:08.247Z,8.69
2024-01-26T13:24:37.538Z,8.74
2024-01-26T13:27:13.339Z,8.76
2024-01-26T13:29:43.757Z,8.73
2024-01-26T13:32:10.651Z,8.73
2024-01-26T13:34:38.492Z,8.90
2024-01-26T13:37:05.205Z,8.81
2024-01-26T13:39:31.813Z,8.73
2024-01-26T13:41:58.860Z,8.71
2024-01-26T13:44:25.566Z,8.82
2024-01-26T13:46:52.638Z,8.88
2024-01-26T13:49:19.382Z,8.79
2024-01-26T13:51:46.646Z,8.67
2024-01-26T13:54:15.341Z,8.69
2024-01-26T13:56:42.672Z,8.73
2024-01-26T13:59:09.324Z,8.69
2024-01-26T14:01:36.731Z,8.79
2024-01-26T14:04:03.523Z,8.76
2024-01-26T14:06:32.850Z,8.76
2024-01-26T14:09:01.037Z,8.68
2024-01-26T14:11:27.628Z,8.73
2024-01-26T14:13:54.151Z,8.82
2024-01-26T14:16:20.688Z,8.73
2024-01-26T14:18:47.365Z,8.66
2024-01-26T14:21:14.028Z,8.63
2024-01-26T14:23:40.634Z,8.72
2024-01-26T14:26:07.254Z,8.69
2024-01-26T14:28:34.521Z,8.64
2024-01-26T14:31:01.185Z,8.66
2024-01-26T14:33:27.947Z,8.73
2024-01-26T14:35:54.684Z,8.71
2024-01-26T14:38:22.607Z,8.76
2024-01-26T14:40:49.187Z,8.54
2024-01-26T14:43:15.638Z,8.35
2024-01-26T14:45:42.496Z,8.39
2024-01-26T14:48:09.923Z,8.54
2024-01-26T14:50:37.312Z,8.63
2024-01-26T14:53:04.487Z,8.64
2024-01-26T14:55:33.518Z,8.73
2024-01-26T14:58:01.774Z,8.55
2024-01-26T15:00:29.462Z,8.56
2024-01-26T15:02:56.295Z,8.57
2024-01-26T15:05:26.790Z,8.68
2024-01-26T15:07:55.263Z,8.72
2024-01-26T15:10:22.892Z,8.65
2024-01-26T15:12:49.654Z,8.75
2024-01-26T15:15:18.221Z,8.84
2024-01-26T15:17:47.669Z,8.94
2024-01-26T15:20:15.247Z,8.88
2024-01-26T15:22:42.039Z,8.95
2024-01-26T15:25:09.014Z,9.01
2024-01-26T15:27:35.608Z,9.01
2024-01-26T15:30:02.292Z,8.97
2024-01-26T15:32:30.954Z,8.95
2024-01-26T15:34:57.498Z,8.88
2024-01-26T15:37:23.990Z,8.94
2024-01-26T15:39:50.534Z,9.03
2024-01-26T15:42:17.713Z,9.06
2024-01-26T15:44:44.804Z,9.03
2024-01-26T15:47:11.635Z,9.10
2024-01-26T15:49:39.640Z,9.19
2024-01-26T15:52:07.011Z,9.23
2024-01-26T15:54:33.485Z,9.27
2024-01-26T15:57:00.466Z,9.25
2024-01-26T15:59:27.118Z,9.30
2024-01-26T16:01:54.040Z,9.36
2024-01-26T16:04:20.589Z,9.39
2024-01-26T16:06:50.422Z,9.38
2024-01-26T16:09:17.794Z,9.41
2024-01-26T16:11:44.865Z,9.43
2024-01-26T16:14:12.786Z,9.44
2024-01-26T16:16:40.966Z,9.43
2024-01-26T16:19:08.026Z,9.38
2024-01-26T16:21:34.628Z,9.36
2024-01-26T16:24:01.162Z,9.33
2024-01-26T16:26:27.664Z,9.30
2024-01-26T16:28:54.255Z,9.33
2024-01-26T16:31:21.047Z,9.22
2024-01-26T16:33:47.665Z,9.27
2024-01-26T16:36:14.343Z,9.26
2024-01-26T16:38:47.363Z,9.31
2024-01-26T16:41:18.004Z,9.32
2024-01-26T16:43:44.558Z,9.31
2024-01-26T16:46:11.546Z,9.25
2024-01-26T16:48:38.369Z,9.25
2024-01-26T16:51:05.761Z,9.28
2024-01-26T16:53:32.341Z,9.18
2024-01-26T16:55:58.847Z,9.27
2024-01-26T16:58:25.503Z,9.28
2024-01-26T17:00:54.221Z,9.30
2024-01-26T17:03:20.911Z,9.27
2024-01-26T17:05:47.888Z,9.22
2024-01-26T17:08:14.445Z,9.26
2024-01-26T17:10:40.999Z,9.26
2024-01-26T17:13:09.353Z,9.25
2024-01-26T17:15:35.911Z,9.24
2024-01-26T17:18:02.901Z,9.21
2024-01-26T17:20:29.554Z,9.25
2024-01-26T17:22:56.039Z,9.19
2024-01-26T17:25:22.554Z,9.21
2024-01-26T17:27:49.018Z,9.15
2024-01-26T17:30:15.623Z,9.14
2024-01-26T17:32:42.298Z,9.15
2024-01-26T17:35:08.992Z,9.16
2024-01-26T17:37:35.564Z,9.14
2024-01-26T17:40:03.687Z,9.12
2024-01-26T17:42:32.015Z,9.14
2024-01-26T17:44:59.087Z,9.13
2024-01-26T17:47:25.843Z,9.03
2024-01-26T17:49:52.572Z,9.07
2024-01-26T17:52:19.558Z,9.11
2024-01-26T17:54:46.188Z,9.12
2024-01-26T17:57:12.852Z,9.06
2024-01-26T17:59:43.825Z,9.03
2024-01-26T18:02:14.030Z,9.12
2024-01-26T18:04:40.624Z,9.16
2024-01-26T18:07:07.190Z,9.13
2024-01-26T18:09:33.775Z,9.09
2024-01-26T18:12:00.408Z,9.09
2024-01-26T18:14:26.950Z,9.14
2024-01-26T18:16:53.458Z,9.03
2024-01-26T18:19:20.410Z,8.80
2024-01-26T18:21:47.023Z,8.89
2024-01-26T18:24:13.839Z,8.87
2024-01-26T18:26:41.641Z,8.85
2024-01-26T18:29:08.722Z,8.76
2024-01-26T18:31:35.226Z,8.74
2024-01-26T18:34:05.011Z,8.73
2024-01-26T18:36:31.686Z,8.78
2024-01-26T18:38:58.253Z,8.73
2024-01-26T18:41:31.295Z,8.68
2024-01-26T18:43:58.722Z,8.70
2024-01-26T18:46:26.830Z,8.63
2024-01-26T18:48:54.442Z,8.59
2024-01-26T18:51:21.585Z,8.51
2024-01-26T18:53:48.349Z,8.44
2024-01-26T18:56:14.975Z,8.49
2024-01-26T18:58:42.758Z,8.45
2024-01-26T19:01:11.657Z,8.41
2024-01-26T19:03:40.107Z,8.39
2024-01-26T19:06:07.096Z,8.31
2024-01-26T19:08:33.669Z,8.32
2024-01-26T19:11:00.296Z,8.31
2024-01-26T19:13:26.849Z,8.31
2024-01-26T19:15:53.603Z,8.29
2024-01-26T19:18:21.003Z,8.31
2024-01-26T19:20:47.918Z,8.26
2024-01-26T19:23:14.586Z,8.31
2024-01-26T19:25:41.445Z,8.31
2024-01-26T19:28:08.234Z,8.28
2024-01-26T19:30:37.324Z,8.30
2024-01-26T19:33:07.217Z,8.29
2024-01-26T19:35:34.183Z,8.29
2024-01-26T19:38:01.162Z,8.31
2024-01-26T19:40:27.715Z,8.31
2024-01-26T19:42:54.252Z,8.24
2024-01-26T19:45:23.746Z,8.32
2024-01-26T19:47:50.606Z,8.29
2024-01-26T19:50:17.964Z,8.32
2024-01-26T19:52:45.266Z,8.29
2024-01-26T19:55:12.277Z,8.31
2024-01-26T19:57:41.099Z,8.30
2024-01-26T20:00:10.220Z,8.31
2024-01-26T20:02:37.613Z,8.37
2024-01-26T20:05:08.636Z,8.40
2024-01-26T20:07:35.892Z,8.36
2024-01-26T20:10:09.714Z,8.42
2024-01-26T20:12:36.855Z,8.41
2024-01-26T20:15:04.892Z,8.43
2024-01-26T20:17:31.664Z,8.44
2024-01-26T20:19:58.526Z,8.42
2024-01-26T20:22:25.088Z,8.46
2024-01-26T20:24:51.857Z,8.39
2024-01-26T20:27:18.632Z,8.42
2024-01-26T20:29:45.319Z,8.38
2024-01-26T20:32:11.869Z,8.38
2024-01-26T20:34:38.485Z,8.31
2024-01-26T20:37:05.137Z,8.33
2024-01-26T20:39:31.857Z,8.27
2024-01-26T20:42:00.988Z,8.22
2024-01-26T20:44:29.684Z,8.25
2024-01-26T20:46:56.432Z,8.19
2024-01-26T20:49:23.133Z,8.19
2024-01-26T20:51:51.544Z,8.18
2024-01-26T20:54:21.866Z,8.09
2024-01-26T20:56:48.541Z,8.11
2024-01-26T20:59:15.138Z,7.95
2024-01-26T21:01:41.600Z,7.98
2024-01-26T21:04:08.141Z,7.81
2024-01-26T21:06:35.018Z,7.62
2024-01-26T21:09:01.669Z,7.50
2024-01-26T21:11:30.089Z,7.43
2024-01-26T21:13:56.578Z,7.50
2024-01-26T21:16:24.669Z,7.33
2024-01-26T21:18:51.579Z,7.44
2024-01-26T21:21:18.389Z,7.37
2024-01-26T21:23:45.863Z,7.50
2024-01-26T21:26:12.481Z,7.64
2024-01-26T21:28:39.063Z,7.73
2024-01-26T21:31:06.660Z,7.72
2024-01-26T21:33:33.547Z,7.92
2024-01-26T21:36:02.396Z,8.01
2024-01-26T21:38:29.683Z,8.07
2024-01-26T21:40:56.454Z,8.08
2024-01-26T21:43:23.154Z,8.11
2024-01-26T21:45:52.845Z,8.13
2024-01-26T21:48:24.236Z,8.21
2024-01-26T21:50:51.470Z,8.22
2024-01-26T21:53:18.655Z,8.24
2024-01-26T21:55:45.359Z,8.25
2024-01-26T21:58:11.958Z,8.25
2024-01-26T22:00:38.653Z,8.29
2024-01-26T22:03:05.854Z,8.25
2024-01-26T22:05:34.365Z,8.28
2024-01-26T22:08:02.482Z,8.21
2024-01-26T22:10:29.902Z,8.22
2024-01-26T22:12:56.352Z,8.25
2024-01-26T22:15:22.928Z,8.21
2024-01-26T22:17:49.707Z,8.05
2024-01-26T22:20:16.922Z,7.98
2024-01-26T22:22:43.497Z,7.96
2024-01-26T22:25:10.129Z,7.91
2024-01-26T22:27:36.677Z,7.86
2024-01-26T22:30:03.616Z,7.78
2024-01-26T22:32:30.152Z,7.65
2024-01-26T22:34:56.740Z,7.66
2024-01-26T22:37:23.301Z,7.54
2024-01-26T22:39:49.900Z,7.52
2024-01-26T22:42:16.505Z,7.46
2024-01-26T22:44:43.205Z,7.37
2024-01-26T22:47:09.725Z,7.30
2024-01-26T22:49:36.344Z,7.21
2024-01-26T22:52:02.939Z,7.25
2024-01-26T22:54:29.580Z,7.17
2024-01-26T22:56:56.195Z,7.09
2024-01-26T22:59:22.730Z,7.00
2024-01-26T23:01:51.652Z,6.96
2024-01-26T23:04:18.439Z,7.03
2024-01-26T23:06:45.799Z,7.05
2024-01-26T23:09:13.314Z,7.04
2024-01-26T23:11:40.225Z,7.05
2024-01-26T23:14:09.829Z,7.01
2024-01-26T23:16:36.387Z,7.10
2024-01-26T23:19:03.886Z,7.17
2024-01-26T23:21:30.771Z,7.23
2024-01-26T23:23:57.709Z,7.20
2024-01-26T23:26:25.384Z,7.25
2024-01-26T23:28:52.248Z,7.32
2024-01-26T23:31:18.930Z,7.38
2024-01-26T23:33:45.685Z,7.35
2024-01-26T23:36:12.373Z,7.37
2024-01-26T23:38:38.983Z,7.41
2024-01-26T23:41:09.493Z,7.40
2024-01-26T23:43:38.393Z,7.45
2024-01-26T23:46:06.395Z,7.44
2024-01-26T23:48:33.172Z,7.38
2024-01-26T23:51:02.734Z,7.40
2024-01-26T23:53:29.532Z,7.42
2024-01-26T23:55:56.086Z,7.42
2024-01-26T23:58:22.625Z,7.49
